Saturday, February 24, 2018, 5:01 AM EST
Back to Local

KALB, Albany International Airport

Location: Latham, NY, United States Lat: 42.75
Local Time: 5:01 AM EST (10:01 GMT) Lon: -73.8
Time Zone: US/Eastern Elev: 285 ft

Show me the last for .
Show Decoded

2018-02-24 04:24 METAR KALB 240924Z 00000KT 10SM -DZ FEW012 OVC016 03/01 A3013 RMK AO2 DZB15 PCPN
                 VRY LGT P0000 T00280011 =
2018-02-24 03:51 METAR KALB 240851Z 18004KT 10SM BKN012 OVC018 03/01 A3013 RMK AO2 DZB17E50
                 SLP204 P0000 60000 T00280011 51005 =
2018-02-24 02:51 METAR KALB 240751Z 19005KT 10SM FEW006 BKN012 OVC018 03/01 A3012 RMK AO2 DZE01
                 SLP201 BKN V SCT P0000 T00280011 =
2018-02-24 02:42 METAR KALB 240742Z COR 18007KT 10SM FEW006 SCT012 OVC016 03/01 A3011 =
2018-02-24 01:58 METAR KALB 240658Z COR VRB03KT 10SM -DZ SCT006 BKN010 OVC015 03/01 A3013 RMK AO2
                 P0000 T00280011 =
2018-02-24 01:51 METAR KALB 240651Z 00000KT 10SM -DZ BKN006 BKN010 OVC015 02/01 A3013 RMK AO2
                 SLP205 PCPN VRY LGT P0000 T00220011 =
2018-02-24 00:51 METAR KALB 240551Z 18006KT 8SM -DZ OVC006 03/01 A3011 RMK AO2 DZB45 SLP200 4/001
                 P0000 60004 T00280006 10028 20017 55008 =
2018-02-23 23:51 METAR KALB 240451Z 18010KT 10SM BKN008 OVC021 03/01 A3010 RMK AO2 SLP197
                 T00280006 400281072 =
2018-02-23 22:51 METAR KALB 240351Z 18011KT 10SM BKN008 OVC021 02/00 A3011 RMK AO2 SLP198
                 T00220000 =
2018-02-23 21:51 METAR KALB 240251Z 17013G19KT 10SM OVC009 02/00 A3014 RMK AO2 SLP208 60004
                 T00220000 58024 =
2018-02-23 20:51 METAR KALB 240151Z 18014G20KT 10SM OVC009 02/00 A3017 RMK AO2 SLP220 T00220000 =
2018-02-23 19:51 METAR KALB 240051Z 18014G21KT 10SM BKN009 OVC011 02/M01 A3019 RMK AO2 RAB2357E50
                 SLP227 P0004 T00221006 =
2018-02-23 18:51 METAR KALB 232351Z 16017G22KT 10SM BKN008 OVC013 02/M01 A3021 RMK AO2 RAE28
                 SLP233 4/002 P0000 60022 T00171006 10017 20006 56037 =
2018-02-23 17:51 METAR KALB 232251Z 18016G24KT 10SM -RA BKN007 OVC013 02/M01 A3023 RMK AO2 SLP240
                 P0000 T00171011 =
2018-02-23 16:51 METAR KALB 232151Z 17013G22KT 7SM -RA BKN008 OVC013 01/M01 A3026 RMK AO2 SLP252
                 PCPN VRY LGT P0012 T00111011 =
2018-02-23 16:35 METAR KALB 232135Z 16013G22KT 3SM -RA BR BKN008 OVC013 01/M01 A3028 RMK AO2
                 PRESFR P0012 T00111011 =
2018-02-23 15:51 METAR KALB 232051Z 18016G23KT 2SM -RA BR BKN008 OVC010 01/M01 A3032 RMK AO2 SFC
                 VIS 3 SLP270 P0005 60010 T00111011 56047 =
2018-02-23 15:32 METAR KALB 232032Z 17012G24KT 5SM -RA BR BKN008 OVC010 01/M01 A3034 RMK AO2
                 P0003 T00111011 =
2018-02-23 14:51 METAR KALB 231951Z 16014G20KT 6SM -RA FEW008 BKN010 OVC016 01/M01 A3036 RMK AO2
                 SLP284 P0004 T00111011 =
2018-02-23 13:51 METAR KALB 231851Z 16013G19KT 5SM -RA BKN011 OVC016 01/M02 A3040 RMK AO2
                 RAE00B31SNE00 SLP299 P0001 T00111017 =
2018-02-23 13:16 METAR KALB 231816Z 16011G16KT 10SM BKN013 BKN020 OVC049 01/M02 A3043 RMK AO2
                 RAE00SNE00 PRESFR SHRA DSNT W-NW P0000 T00111022 =
2018-02-23 12:51 METAR KALB 231751Z 16013G19KT 10SM -RASN FEW035 OVC047 01/M02 A3046 RMK AO2
                 RAB05FZRAE05SNB46 SLP318 PCPN VRY LGT 4/003 933003 P0001 60002 I1000 I6000
                 T00061022 10006 21061 58046 =
2018-02-23 12:05 METAR KALB 231705Z 16007KT 6SM -RA FEW035 OVC048 01/M02 A3052 RMK AO2
                 RAB05FZRAE05 P0001 I1000 T00061022 =
2018-02-23 11:51 METAR KALB 231651Z 17008KT 6SM -FZRA OVC050 00/M03 A3052 RMK AO2 FZRAB1558E10B26
                 SLP340 P0001 I1000 T00001028 =
2018-02-23 11:26 METAR KALB 231626Z 17010KT 8SM -FZRA FEW037 OVC050 00/M04 A3054 RMK AO2
                 FZRAB1558E10B26 P0000 I1000 T00001039 =
2018-02-23 11:10 METAR KALB 231610Z 17010KT 10SM OVC050 00/M04 A3055 RMK AO2 FZRAB1558E10 P0000
                 I1000 T00001039 =
2018-02-23 10:58 METAR KALB 231558Z 17006KT 10SM -FZRA BKN050 OVC070 00/M04 A3054 =
2018-02-23 10:51 METAR KALB 231551Z 15007KT 10SM BKN050 OVC070 00/M04 A3056 RMK AO2 FZRAB10E38
                 SLP352 PRESENT WX VCSH P0000 I1000 T00001044 =
2018-02-23 10:38 METAR KALB 231538Z 17006KT 10SM FEW050 OVC070 00/M04 A3057 RMK AO2 FZRAB10E38
                 VCSH N-E P0000 I1000 T00001039 =
2018-02-23 10:10 METAR KALB 231510Z 16003KT 10SM -FZRA BKN075 BKN110 M01/M04 A3058 RMK AO2
                 FZRAB10 P0000 I1000 T10111044 =
2018-02-23 09:51 METAR KALB 231451Z 00000KT 10SM VCFG FEW004 FEW090 BKN120 M02/M03 A3060 RMK AO2
                 SLP366 VCFG E VCSH SW T10221033 58022 =
2018-02-23 09:23 METAR KALB 231423Z 21004KT 6SM BCFG BR SCT004 BKN120 M03/M04 A3061 RMK AO2 SCT V
                 FEW BCFG E VCFG N T10331039 =
2018-02-23 09:05 METAR KALB 231405Z 20005KT 3SM BR BKN003 BKN120 M03/M04 A3061 RMK AO2 T10331044
                 =
2018-02-23 08:55 METAR KALB 231355Z 18005KT 3/4SM R01/5500VP6000FT BR OVC003 M04/M04 A3060 RMK
                 AO2 TWR VIS 1 PRESFR OCNL BINOVC T10391044 =
2018-02-23 08:51 METAR KALB 231351Z 19005KT 1/4SM R01/2600VP6000FT FZFG OVC003 M04/M04 A3061 RMK
                 AO2 SFC VIS 1/2 SLP370 OCNL BINOVC T10391044 =
2018-02-23 08:38 METAR KALB 231338Z 18004KT 1/4SM R01/1600V2400FT FZFG OVC003 M04/M05 A3063 RMK
                 AO2 T10391050 =
2018-02-23 08:12 METAR KALB 231312Z 00000KT 1/2SM R01/3500VP6000FT BR OVC003 M04/M06 A3064 RMK
                 AO2 SFC VIS 3/4 T10441056 =
2018-02-23 07:51 METAR KALB 231251Z 00000KT 1SM R01/P6000FT BR OVC003 M04/M06 A3065 RMK AO2 SFC
                 VIS 1 1/4 SLP383 T10441061 =
2018-02-23 07:40 METAR KALB 231240Z 19003KT 1SM R01/5000VP6000FT BR OVC003 M05/M07 A3065 RMK AO2
                 SFC VIS 1 1/4 CIG 003V006 VIS HYR N T10501067 =
2018-02-23 07:31 METAR KALB 231231Z 20003KT 5SM BR OVC005 M05/M07 A3066 RMK AO2 VIS S-SW 1 1/4
                 T10501067 =
2018-02-23 06:51 METAR KALB 231151Z 00000KT 4SM R01/5500VP6000FT BR OVC003 M06/M08 A3066 RMK AO2
                 SLP388 VIS S-SW 1 1/2 4/004 70029 T10561083 11044 21072 56008 =
2018-02-23 06:34 METAR KALB 231134Z COR 00000KT 4SM BR OVC003 M06/M08 A3066 =
2018-02-23 05:51 METAR KALB 231051Z 00000KT 8SM OVC005 M06/M09 A3067 RMK AO2 SLP389 T10611089 =

Support USWX by starting your Amazon purchase here.